createdAt,value
2022-09-24T00:00:26.380Z,0.00
2022-09-24T00:01:26.460Z,0.00
2022-09-24T00:02:26.386Z,0.00
2022-09-24T00:03:26.440Z,0.00
2022-09-24T00:04:26.352Z,0.00
2022-09-24T00:05:26.336Z,0.00
2022-09-24T00:06:26.332Z,0.00
2022-09-24T00:07:26.325Z,0.00
2022-09-24T00:08:26.344Z,0.00
2022-09-24T00:09:26.313Z,0.00
2022-09-24T00:10:26.305Z,0.00
2022-09-24T00:11:26.297Z,0.00
2022-09-24T00:12:26.301Z,0.00
2022-09-24T00:13:26.312Z,0.00
2022-09-24T00:14:26.277Z,0.00
2022-09-24T00:15:26.267Z,0.00
2022-09-24T00:16:26.375Z,0.00
2022-09-24T00:17:26.252Z,0.00
2022-09-24T00:18:26.269Z,0.00
2022-09-24T00:19:26.250Z,0.00
2022-09-24T00:20:26.232Z,0.00
2022-09-24T00:21:26.218Z,0.00
2022-09-24T00:22:26.215Z,0.00
2022-09-24T00:23:26.230Z,0.00
2022-09-24T00:24:26.202Z,0.00
2022-09-24T00:25:26.191Z,0.00
2022-09-24T00:26:26.182Z,0.00
2022-09-24T00:27:26.176Z,0.00
2022-09-24T00:28:26.310Z,0.00
2022-09-24T00:29:26.158Z,0.00
2022-09-24T00:30:26.164Z,0.00
2022-09-24T00:31:26.154Z,0.00
2022-09-24T00:32:26.144Z,0.00
2022-09-24T00:33:26.161Z,0.00
2022-09-24T00:34:26.115Z,0.00
2022-09-24T00:35:26.116Z,0.00
2022-09-24T00:36:26.109Z,0.00
2022-09-24T00:37:26.104Z,0.00
2022-09-24T00:38:26.091Z,0.00
2022-09-24T00:39:26.107Z,0.00
2022-09-24T00:40:26.116Z,0.00
2022-09-24T00:41:26.064Z,0.00
2022-09-24T00:42:26.057Z,0.00
2022-09-24T00:43:26.052Z,0.00
2022-09-24T00:44:26.068Z,0.00
2022-09-24T00:45:26.040Z,0.00
2022-09-24T00:46:26.092Z,0.00
2022-09-24T00:47:26.026Z,0.00
2022-09-24T00:48:26.016Z,0.00
2022-09-24T00:49:26.031Z,0.00
2022-09-24T00:50:25.998Z,0.00
2022-09-24T00:51:25.994Z,0.00
2022-09-24T00:52:25.975Z,0.00
2022-09-24T00:53:25.974Z,0.00
2022-09-24T00:54:25.989Z,0.00
2022-09-24T00:55:25.956Z,0.00
2022-09-24T00:56:25.955Z,0.00
2022-09-24T00:57:25.946Z,0.00
2022-09-24T00:58:25.931Z,0.00
2022-09-24T00:59:25.949Z,0.00
2022-09-24T01:00:26.065Z,0.00
2022-09-24T01:01:25.955Z,0.00
2022-09-24T01:02:25.968Z,0.00
2022-09-24T01:03:25.885Z,0.00
2022-09-24T01:04:25.911Z,0.00
2022-09-24T01:05:25.874Z,0.00
2022-09-24T01:06:25.869Z,0.00
2022-09-24T01:07:25.854Z,0.00
2022-09-24T01:08:25.862Z,0.00
2022-09-24T01:09:25.865Z,0.00
2022-09-24T01:10:25.836Z,0.00
2022-09-24T01:11:25.852Z,0.00
2022-09-24T01:12:25.828Z,0.00
2022-09-24T01:13:25.809Z,0.00
2022-09-24T01:14:25.838Z,0.00
2022-09-24T01:15:25.798Z,0.00
2022-09-24T01:16:25.831Z,0.00
2022-09-24T01:17:25.782Z,0.00
2022-09-24T01:18:25.778Z,0.00
2022-09-24T01:19:25.797Z,0.00
2022-09-24T01:20:25.838Z,0.00
2022-09-24T01:21:25.751Z,0.00
2022-09-24T01:22:25.755Z,0.00
2022-09-24T01:23:25.738Z,0.00
2022-09-24T01:24:25.749Z,0.00
2022-09-24T01:25:25.721Z,0.00
2022-09-24T01:26:25.712Z,0.00
2022-09-24T01:27:25.709Z,0.00
2022-09-24T01:28:25.699Z,0.00
2022-09-24T01:29:25.727Z,0.00
2022-09-24T01:30:25.751Z,0.00
2022-09-24T01:31:25.718Z,0.00
2022-09-24T01:32:30.187Z,0.00
2022-09-24T01:33:27.663Z,0.00
2022-09-24T01:34:25.687Z,0.00
2022-09-24T01:35:25.651Z,0.00
2022-09-24T01:36:25.633Z,0.00
2022-09-24T01:37:25.647Z,0.00
2022-09-24T01:38:25.621Z,0.00
2022-09-24T01:39:25.616Z,0.00
2022-09-24T01:40:25.671Z,0.00
2022-09-24T01:41:25.609Z,0.00
2022-09-24T01:42:25.596Z,0.00
2022-09-24T01:43:25.588Z,0.00
2022-09-24T01:44:25.578Z,0.00
2022-09-24T01:45:25.597Z,0.00
2022-09-24T01:46:25.609Z,0.00
2022-09-24T01:47:25.576Z,0.00
2022-09-24T01:48:25.555Z,0.00
2022-09-24T01:49:25.562Z,0.00
2022-09-24T01:50:25.556Z,0.00
2022-09-24T01:51:25.524Z,0.00
2022-09-24T01:52:25.520Z,0.00
2022-09-24T01:53:25.511Z,0.00
2022-09-24T01:54:25.508Z,0.00
2022-09-24T01:55:25.531Z,0.00
2022-09-24T01:56:25.486Z,0.00
2022-09-24T01:57:26.478Z,0.00
2022-09-24T01:58:25.486Z,0.00
2022-09-24T01:59:25.468Z,0.00
2022-09-24T02:00:25.479Z,0.00
2022-09-24T02:01:25.556Z,0.00
2022-09-24T02:02:25.449Z,0.00
2022-09-24T02:03:25.430Z,0.00
2022-09-24T02:04:25.435Z,0.00
2022-09-24T02:05:25.445Z,0.00
2022-09-24T02:06:25.412Z,0.00
2022-09-24T02:07:25.401Z,0.00
2022-09-24T02:08:25.398Z,0.00
2022-09-24T02:09:25.388Z,0.00
2022-09-24T02:10:25.402Z,0.00
2022-09-24T02:11:25.376Z,0.00
2022-09-24T02:12:25.389Z,0.00
2022-09-24T02:13:25.360Z,0.00
2022-09-24T02:14:25.348Z,0.00
2022-09-24T02:15:30.127Z,0.00
2022-09-24T02:16:27.363Z,0.00
2022-09-24T02:17:25.330Z,0.00
2022-09-24T02:18:25.325Z,0.00
2022-09-24T02:19:25.312Z,0.00
2022-09-24T02:20:25.317Z,0.00
2022-09-24T02:21:26.294Z,0.00
2022-09-24T02:22:25.366Z,0.00
2022-09-24T02:23:25.281Z,0.00
2022-09-24T02:24:25.274Z,0.00
2022-09-24T02:25:25.288Z,0.00
2022-09-24T02:26:25.260Z,0.00
2022-09-24T02:27:25.255Z,0.00
2022-09-24T02:28:25.241Z,0.00
2022-09-24T02:29:25.245Z,0.00
2022-09-24T02:30:25.273Z,0.00
2022-09-24T02:31:25.297Z,0.00
2022-09-24T02:32:25.229Z,0.00
2022-09-24T02:33:25.210Z,0.00
2022-09-24T02:34:25.202Z,0.00
2022-09-24T02:35:25.228Z,0.00
2022-09-24T02:36:25.186Z,0.00
2022-09-24T02:37:25.179Z,0.00
2022-09-24T02:38:25.168Z,0.00
2022-09-24T02:39:25.159Z,0.00
2022-09-24T02:40:25.202Z,0.00
2022-09-24T02:41:25.148Z,0.00
2022-09-24T02:42:25.135Z,0.00
2022-09-24T02:43:25.130Z,0.00
2022-09-24T02:44:25.134Z,0.00
2022-09-24T02:45:25.143Z,0.00
2022-09-24T02:46:25.168Z,0.00
2022-09-24T02:47:25.099Z,0.00
2022-09-24T02:48:25.097Z,0.00
2022-09-24T02:49:25.095Z,0.00
2022-09-24T02:50:25.101Z,0.00
2022-09-24T02:51:25.059Z,0.00
2022-09-24T02:52:25.069Z,0.00
2022-09-24T02:53:25.075Z,0.00
2022-09-24T02:54:25.052Z,0.00
2022-09-24T02:55:25.065Z,0.00
2022-09-24T02:56:25.031Z,0.00
2022-09-24T02:57:25.022Z,0.00
2022-09-24T02:58:25.013Z,0.00
2022-09-24T02:59:25.002Z,0.00
2022-09-24T03:00:25.019Z,0.00
2022-09-24T03:01:25.024Z,0.00
2022-09-24T03:02:25.084Z,0.00
2022-09-24T03:03:24.974Z,0.00
2022-09-24T03:04:24.967Z,0.00
2022-09-24T03:05:24.985Z,0.00
2022-09-24T03:06:24.946Z,0.00
2022-09-24T03:07:24.934Z,0.00
2022-09-24T03:08:24.944Z,0.00
2022-09-24T03:09:24.924Z,0.00
2022-09-24T03:10:24.947Z,0.00
2022-09-24T03:11:24.911Z,0.00
2022-09-24T03:12:24.907Z,0.00
2022-09-24T03:13:24.905Z,0.00
2022-09-24T03:14:24.885Z,0.00
2022-09-24T03:15:24.914Z,0.00
2022-09-24T03:16:24.963Z,0.00
2022-09-24T03:17:25.867Z,0.00
2022-09-24T03:18:24.853Z,0.00
2022-09-24T03:19:24.847Z,0.00
2022-09-24T03:20:24.875Z,0.00
2022-09-24T03:21:24.834Z,0.00
2022-09-24T03:22:24.820Z,0.00
2022-09-24T03:23:24.815Z,0.00
2022-09-24T03:24:24.812Z,0.00
2022-09-24T03:25:24.806Z,0.00
2022-09-24T03:26:24.825Z,0.00
2022-09-24T03:27:24.784Z,0.00
2022-09-24T03:28:24.784Z,0.00
2022-09-24T03:29:24.766Z,0.00
2022-09-24T03:30:24.795Z,0.00
2022-09-24T03:31:24.781Z,0.00
2022-09-24T03:32:24.753Z,0.00
2022-09-24T03:33:24.749Z,0.00
2022-09-24T03:34:24.736Z,0.00
2022-09-24T03:35:24.727Z,0.00
2022-09-24T03:36:24.745Z,0.00
2022-09-24T03:37:24.710Z,0.00
2022-09-24T03:38:24.710Z,0.00
2022-09-24T03:39:24.697Z,0.00
2022-09-24T03:40:24.717Z,0.00
2022-09-24T03:41:24.715Z,0.00
2022-09-24T03:42:24.670Z,0.00
2022-09-24T03:43:24.671Z,0.00
2022-09-24T03:44:24.658Z,0.00
2022-09-24T03:45:24.648Z,0.00
2022-09-24T03:46:24.713Z,0.00
2022-09-24T03:47:24.637Z,0.00
2022-09-24T03:48:57.957Z,0.00
2022-09-24T03:49:24.621Z,0.00
2022-09-24T03:50:24.646Z,0.00
2022-09-24T03:51:24.602Z,0.00
2022-09-24T03:52:24.597Z,0.00
2022-09-24T03:53:24.594Z,0.00
2022-09-24T03:54:24.587Z,0.00
2022-09-24T03:55:24.606Z,0.00
2022-09-24T03:56:24.572Z,0.00
2022-09-24T03:57:24.562Z,0.00
2022-09-24T03:58:24.619Z,0.00
2022-09-24T03:59:24.549Z,0.00
2022-09-24T04:00:24.561Z,0.00
2022-09-24T04:01:24.595Z,0.00
2022-09-24T04:02:24.678Z,0.00
2022-09-24T04:03:24.565Z,0.00
2022-09-24T04:04:24.505Z,0.00
2022-09-24T04:05:24.528Z,0.00
2022-09-24T04:06:26.059Z,0.00
2022-09-24T04:07:25.487Z,0.00
2022-09-24T04:08:24.478Z,0.00
2022-09-24T04:09:24.479Z,0.00
2022-09-24T04:10:24.493Z,0.00
2022-09-24T04:11:24.462Z,0.00
2022-09-24T04:12:24.452Z,0.00
2022-09-24T04:13:24.446Z,0.00
2022-09-24T04:14:24.437Z,0.00
2022-09-24T04:15:24.487Z,0.00
2022-09-24T04:16:24.482Z,0.00
2022-09-24T04:17:24.413Z,0.00
2022-09-24T04:18:24.413Z,0.00
2022-09-24T04:19:24.396Z,0.00
2022-09-24T04:20:24.394Z,0.00
2022-09-24T04:21:24.413Z,0.00
2022-09-24T04:22:24.390Z,0.00
2022-09-24T04:23:24.369Z,0.00
2022-09-24T04:24:24.365Z,0.00
2022-09-24T04:25:24.352Z,0.00
2022-09-24T04:26:24.376Z,0.00
2022-09-24T04:27:24.340Z,0.00
2022-09-24T04:28:24.328Z,0.00
2022-09-24T04:29:24.326Z,0.00
2022-09-24T04:30:24.315Z,0.00
2022-09-24T04:31:24.368Z,0.00
2022-09-24T04:32:24.332Z,0.00
2022-09-24T04:33:24.294Z,0.00
2022-09-24T04:34:24.294Z,0.00
2022-09-24T04:35:24.283Z,0.00
2022-09-24T04:36:24.299Z,0.00
2022-09-24T04:37:24.264Z,0.00
2022-09-24T04:38:24.257Z,0.00
2022-09-24T04:39:24.251Z,0.00
2022-09-24T04:40:24.258Z,0.00
2022-09-24T04:41:24.257Z,0.00
2022-09-24T04:42:24.229Z,0.00
2022-09-24T04:43:24.221Z,0.00
2022-09-24T04:44:24.219Z,0.00
2022-09-24T04:45:24.204Z,0.00
2022-09-24T04:46:24.308Z,0.00
2022-09-24T04:47:24.189Z,4.00
2022-09-24T04:48:25.062Z,4.00
2022-09-24T04:49:24.169Z,4.00
2022-09-24T04:50:24.177Z,0.00
2022-09-24T04:51:24.182Z,4.00
2022-09-24T04:52:24.156Z,4.00
2022-09-24T04:53:24.139Z,0.00
2022-09-24T04:54:24.142Z,4.00
2022-09-24T04:55:24.150Z,8.00
2022-09-24T04:56:24.151Z,4.00
2022-09-24T04:57:24.116Z,4.00
2022-09-24T04:58:24.108Z,4.00
2022-09-24T04:59:24.098Z,8.00
2022-09-24T05:00:24.101Z,8.00
2022-09-24T05:01:24.156Z,8.00
2022-09-24T05:02:24.321Z,12.00
2022-09-24T05:03:24.070Z,12.00
2022-09-24T05:04:24.065Z,12.00
2022-09-24T05:05:24.054Z,16.00
2022-09-24T05:06:24.078Z,16.00
2022-09-24T05:07:24.040Z,24.00
2022-09-24T05:08:24.038Z,24.00
2022-09-24T05:09:24.026Z,28.00
2022-09-24T05:10:24.025Z,32.00
2022-09-24T05:11:24.037Z,36.00
2022-09-24T05:12:24.001Z,44.00
2022-09-24T05:13:23.998Z,52.00
2022-09-24T05:14:23.984Z,52.00
2022-09-24T05:15:23.989Z,56.00
2022-09-24T05:16:24.027Z,64.00
2022-09-24T05:17:23.960Z,68.00
2022-09-24T05:18:23.959Z,76.00
2022-09-24T05:19:23.951Z,80.00
2022-09-24T05:20:23.937Z,80.00
2022-09-24T05:21:23.959Z,80.00
2022-09-24T05:22:23.925Z,76.00
2022-09-24T05:23:23.936Z,76.00
2022-09-24T05:24:23.905Z,76.00
2022-09-24T05:25:23.891Z,80.00
2022-09-24T05:26:24.917Z,88.00
2022-09-24T05:27:23.884Z,96.00
2022-09-24T05:28:23.875Z,100.00
2022-09-24T05:29:23.871Z,104.00
2022-09-24T05:30:23.862Z,112.00
2022-09-24T05:31:23.961Z,120.00
2022-09-24T05:32:23.849Z,124.00
2022-09-24T05:33:23.836Z,136.00
2022-09-24T05:34:23.831Z,144.00
2022-09-24T05:35:23.827Z,152.00
2022-09-24T05:36:23.846Z,152.00
2022-09-24T05:37:23.812Z,156.00
2022-09-24T05:38:23.800Z,148.00
2022-09-24T05:39:23.792Z,152.00
2022-09-24T05:40:23.886Z,148.00
2022-09-24T05:41:23.810Z,148.00
2022-09-24T05:42:23.768Z,152.00
2022-09-24T05:43:23.763Z,160.00
2022-09-24T05:44:23.762Z,168.00
2022-09-24T05:45:23.748Z,172.00
2022-09-24T05:46:23.808Z,172.00
2022-09-24T05:47:23.733Z,176.00
2022-09-24T05:48:23.724Z,184.00
2022-09-24T05:49:23.722Z,196.00
2022-09-24T05:50:23.721Z,220.00
2022-09-24T05:51:23.737Z,240.00
2022-09-24T05:52:23.698Z,252.00
2022-09-24T05:53:23.687Z,260.00
2022-09-24T05:54:23.679Z,272.00
2022-09-24T05:55:23.683Z,280.00
2022-09-24T05:56:23.701Z,280.00
2022-09-24T05:57:23.659Z,296.00
2022-09-24T05:58:23.659Z,300.00
2022-09-24T05:59:23.646Z,312.00
2022-09-24T06:00:23.631Z,324.00
2022-09-24T06:01:23.690Z,328.00
2022-09-24T06:02:23.688Z,348.00
2022-09-24T06:03:23.679Z,364.00
2022-09-24T06:04:23.608Z,380.00
2022-09-24T06:05:23.605Z,380.00
2022-09-24T06:06:23.687Z,384.00
2022-09-24T06:07:23.585Z,388.00
2022-09-24T06:08:23.573Z,400.00
2022-09-24T06:09:23.580Z,416.00
2022-09-24T06:10:23.569Z,420.00
2022-09-24T06:11:23.584Z,428.00
2022-09-24T06:12:23.557Z,428.00
2022-09-24T06:13:23.542Z,424.00
2022-09-24T06:14:23.533Z,424.00
2022-09-24T06:15:23.526Z,440.00
2022-09-24T06:16:23.735Z,440.00
2022-09-24T06:17:23.529Z,452.00
2022-09-24T06:18:23.504Z,468.00
2022-09-24T06:19:23.509Z,500.00
2022-09-24T06:20:23.526Z,520.00
2022-09-24T06:21:23.699Z,544.00
2022-09-24T06:22:28.194Z,568.00
2022-09-24T06:23:25.493Z,612.00
2022-09-24T06:24:23.501Z,660.00
2022-09-24T06:25:23.451Z,664.00
2022-09-24T06:26:23.467Z,672.00
2022-09-24T06:27:23.439Z,680.00
2022-09-24T06:28:23.458Z,680.00
2022-09-24T06:29:23.427Z,700.00
2022-09-24T06:30:23.425Z,716.00
2022-09-24T06:31:23.492Z,728.00
2022-09-24T06:32:23.404Z,740.00
2022-09-24T06:33:23.394Z,760.00
2022-09-24T06:34:23.390Z,792.00
2022-09-24T06:35:23.385Z,788.00
2022-09-24T06:36:23.415Z,744.00
2022-09-24T06:37:23.365Z,700.00
2022-09-24T06:38:23.359Z,676.00
2022-09-24T06:39:23.407Z,672.00
2022-09-24T06:40:23.495Z,660.00
2022-09-24T06:41:23.370Z,664.00
2022-09-24T06:42:23.320Z,644.00
2022-09-24T06:43:23.326Z,664.00
2022-09-24T06:44:23.312Z,728.00
2022-09-24T06:45:23.306Z,816.00
2022-09-24T06:46:23.549Z,904.00
2022-09-24T06:47:23.290Z,956.00
2022-09-24T06:48:23.290Z,916.00
2022-09-24T06:49:23.276Z,984.00
2022-09-24T06:50:23.272Z,1036.00
2022-09-24T06:51:23.267Z,996.00
2022-09-24T06:52:24.237Z,996.00
2022-09-24T06:53:23.250Z,984.00
2022-09-24T06:54:23.235Z,1020.00
2022-09-24T06:55:23.234Z,1068.00
2022-09-24T06:56:23.248Z,1088.00
2022-09-24T06:57:28.028Z,1160.00
2022-09-24T06:58:25.203Z,1128.00
2022-09-24T06:59:23.192Z,1228.00
2022-09-24T07:00:23.201Z,1156.00
2022-09-24T07:01:23.326Z,1080.00
2022-09-24T07:02:23.290Z,1060.00
2022-09-24T07:03:23.179Z,1152.00
2022-09-24T07:04:23.166Z,1316.00
2022-09-24T07:05:23.165Z,1292.00
2022-09-24T07:06:23.148Z,1320.00
2022-09-24T07:07:23.175Z,1584.00
2022-09-24T07:08:23.129Z,1640.00
2022-09-24T07:09:23.132Z,1804.00
2022-09-24T07:10:23.119Z,1828.00
2022-09-24T07:11:23.113Z,2020.00
2022-09-24T07:12:23.137Z,2228.00
2022-09-24T07:13:23.098Z,2280.00
2022-09-24T07:14:23.083Z,2180.00
2022-09-24T07:15:23.077Z,2364.00
2022-09-24T07:16:23.137Z,2216.00
2022-09-24T07:17:23.102Z,2196.00
2022-09-24T07:18:23.063Z,2164.00
2022-09-24T07:19:23.067Z,2432.00
2022-09-24T07:20:23.041Z,2224.00
2022-09-24T07:21:23.021Z,2088.00
2022-09-24T07:22:23.051Z,2224.00
2022-09-24T07:23:23.013Z,2128.00
2022-09-24T07:24:23.006Z,2032.00
2022-09-24T07:25:23.000Z,2000.00
2022-09-24T07:26:22.989Z,1960.00
2022-09-24T07:27:23.013Z,2020.00
2022-09-24T07:28:22.970Z,1824.00
2022-09-24T07:29:22.963Z,1680.00
2022-09-24T07:30:23.046Z,1664.00
2022-09-24T07:31:23.007Z,1748.00
2022-09-24T07:32:27.453Z,1924.00
2022-09-24T07:33:24.931Z,2032.00
2022-09-24T07:34:22.918Z,2248.00
2022-09-24T07:35:22.912Z,2324.00
2022-09-24T07:36:22.906Z,2180.00
2022-09-24T07:37:22.921Z,1980.00
2022-09-24T07:38:22.886Z,1936.00
2022-09-24T07:39:22.928Z,1836.00
2022-09-24T07:40:22.938Z,1540.00
2022-09-24T07:41:22.865Z,1716.00
2022-09-24T07:42:22.950Z,1808.00
2022-09-24T07:43:22.848Z,1776.00
2022-09-24T07:44:22.841Z,1648.00
2022-09-24T07:45:22.833Z,1396.00
2022-09-24T07:46:22.865Z,1352.00
2022-09-24T07:47:22.843Z,1376.00
2022-09-24T07:48:22.805Z,1460.00
2022-09-24T07:49:22.806Z,1632.00
2022-09-24T07:50:22.828Z,1892.00
2022-09-24T07:51:22.790Z,1992.00
2022-09-24T07:52:22.806Z,1920.00
2022-09-24T07:53:22.782Z,2108.00
2022-09-24T07:54:22.762Z,2312.00
2022-09-24T07:55:22.759Z,2388.00
2022-09-24T07:56:22.755Z,2280.00
2022-09-24T07:57:22.766Z,2528.00
2022-09-24T07:58:22.735Z,3152.00
2022-09-24T07:59:22.721Z,3152.00
2022-09-24T08:00:22.781Z,2656.00
2022-09-24T08:01:22.791Z,2688.00
2022-09-24T08:02:22.732Z,2620.00
2022-09-24T08:03:22.774Z,2512.00
2022-09-24T08:04:22.734Z,2520.00
2022-09-24T08:05:22.678Z,2356.00
2022-09-24T08:06:22.673Z,2560.00
2022-09-24T08:07:22.695Z,2336.00
2022-09-24T08:08:22.654Z,2416.00
2022-09-24T08:09:22.651Z,2600.00
2022-09-24T08:10:22.708Z,2020.00
2022-09-24T08:11:22.634Z,2148.00
2022-09-24T08:12:22.663Z,2324.00
2022-09-24T08:13:27.364Z,2456.00
2022-09-24T08:14:24.612Z,2700.00
2022-09-24T08:15:22.621Z,2460.00
2022-09-24T08:16:22.646Z,2844.00
2022-09-24T08:17:22.612Z,3032.00
2022-09-24T08:18:22.626Z,2620.00
2022-09-24T08:19:22.570Z,3072.00
2022-09-24T08:20:22.566Z,3076.00
2022-09-24T08:21:22.556Z,3044.00
2022-09-24T08:22:22.609Z,3052.00
2022-09-24T08:23:22.546Z,2832.00
2022-09-24T08:24:22.535Z,2564.00
2022-09-24T08:25:22.558Z,2980.00
2022-09-24T08:26:22.524Z,2816.00
2022-09-24T08:27:22.541Z,2900.00
2022-09-24T08:28:22.508Z,2836.00
2022-09-24T08:29:22.499Z,2864.00
2022-09-24T08:30:22.523Z,2792.00
2022-09-24T08:31:22.585Z,2856.00
2022-09-24T08:32:22.513Z,2852.00
2022-09-24T08:33:22.467Z,2772.00
2022-09-24T08:34:22.473Z,2908.00
2022-09-24T08:35:22.455Z,2956.00
2022-09-24T08:36:22.444Z,2860.00
2022-09-24T08:37:22.491Z,2700.00
2022-09-24T08:38:22.429Z,2960.00
2022-09-24T08:39:22.420Z,2764.00
2022-09-24T08:40:22.478Z,2736.00
2022-09-24T08:41:22.409Z,2732.00
2022-09-24T08:42:22.445Z,2860.00
2022-09-24T08:43:22.396Z,2556.00
2022-09-24T08:44:22.381Z,2932.00
2022-09-24T08:45:22.383Z,2680.00
2022-09-24T08:46:22.526Z,2516.00
2022-09-24T08:47:22.392Z,2492.00
2022-09-24T08:48:22.352Z,2312.00
2022-09-24T08:49:22.341Z,2256.00
2022-09-24T08:50:23.347Z,2204.00
2022-09-24T08:51:22.338Z,2140.00
2022-09-24T08:52:22.354Z,2148.00
2022-09-24T08:53:22.327Z,2136.00
2022-09-24T08:54:22.327Z,2044.00
2022-09-24T08:55:22.304Z,2028.00
2022-09-24T08:56:22.299Z,2016.00
2022-09-24T08:57:22.286Z,1956.00
2022-09-24T08:58:22.312Z,1980.00
2022-09-24T08:59:22.264Z,2180.00
2022-09-24T09:00:22.252Z,2112.00
2022-09-24T09:01:22.321Z,2092.00
2022-09-24T09:02:22.305Z,2080.00
2022-09-24T09:03:22.274Z,2024.00
2022-09-24T09:04:22.228Z,2060.00
2022-09-24T09:05:22.219Z,2020.00
2022-09-24T09:06:22.220Z,2000.00
2022-09-24T09:07:22.226Z,2048.00
2022-09-24T09:08:47.059Z,2132.00
2022-09-24T09:09:24.197Z,2072.00
2022-09-24T09:10:22.187Z,2120.00
2022-09-24T09:11:22.217Z,2324.00
2022-09-24T09:12:22.174Z,2232.00
2022-09-24T09:13:22.195Z,2228.00
2022-09-24T09:14:22.153Z,2244.00
2022-09-24T09:15:22.147Z,2200.00
2022-09-24T09:16:22.176Z,2196.00
2022-09-24T09:17:22.125Z,2200.00
2022-09-24T09:18:22.179Z,2428.00
2022-09-24T09:19:22.103Z,2400.00
2022-09-24T09:20:22.127Z,2880.00
2022-09-24T09:21:22.105Z,2744.00
2022-09-24T09:22:22.088Z,2528.00
2022-09-24T09:23:22.108Z,2584.00
2022-09-24T09:24:22.071Z,2684.00
2022-09-24T09:25:22.068Z,2632.00
2022-09-24T09:26:22.057Z,2556.00
2022-09-24T09:27:22.050Z,2700.00
2022-09-24T09:28:22.073Z,2292.00
2022-09-24T09:29:22.069Z,2320.00
2022-09-24T09:30:22.067Z,2404.00
2022-09-24T09:31:22.103Z,2392.00
2022-09-24T09:32:22.011Z,2212.00
2022-09-24T09:33:22.035Z,2160.00
2022-09-24T09:34:22.060Z,2112.00
2022-09-24T09:35:22.009Z,2064.00
2022-09-24T09:36:21.984Z,2040.00
2022-09-24T09:37:25.735Z,2024.00
2022-09-24T09:38:23.007Z,2008.00
2022-09-24T09:39:21.963Z,1992.00
2022-09-24T09:40:22.006Z,1988.00
2022-09-24T09:41:21.949Z,1976.00
2022-09-24T09:42:21.943Z,1964.00
2022-09-24T09:43:21.958Z,1952.00
2022-09-24T09:44:21.931Z,1948.00
2022-09-24T09:45:26.913Z,1948.00
2022-09-24T09:46:23.956Z,1956.00
2022-09-24T09:47:21.892Z,1968.00
2022-09-24T09:48:22.924Z,1972.00
2022-09-24T09:49:21.889Z,1972.00
2022-09-24T09:50:21.882Z,1976.00
2022-09-24T09:51:23.051Z,1976.00
2022-09-24T09:52:22.861Z,1980.00
2022-09-24T09:53:21.888Z,1976.00
2022-09-24T09:54:21.848Z,1976.00
2022-09-24T09:55:21.908Z,1980.00
2022-09-24T09:56:21.844Z,1992.00
2022-09-24T09:57:21.826Z,2000.00
2022-09-24T09:58:21.820Z,2008.00
2022-09-24T09:59:25.704Z,1972.00
2022-09-24T10:00:23.809Z,1960.00
2022-09-24T10:01:21.797Z,1972.00
2022-09-24T10:02:21.859Z,1956.00
2022-09-24T10:03:21.823Z,2056.00
2022-09-24T10:04:21.797Z,1924.00
2022-09-24T10:05:27.032Z,1984.00
2022-09-24T10:06:23.751Z,2080.00
2022-09-24T10:07:21.742Z,2276.00
2022-09-24T10:08:21.739Z,2028.00
2022-09-24T10:09:21.755Z,1988.00
2022-09-24T10:10:21.721Z,1988.00
2022-09-24T10:11:21.710Z,2028.00
2022-09-24T10:12:21.705Z,2072.00
2022-09-24T10:13:21.705Z,2112.00
2022-09-24T10:14:21.759Z,2340.00
2022-09-24T10:15:21.682Z,2364.00
2022-09-24T10:16:21.721Z,2032.00
2022-09-24T10:17:21.668Z,2020.00
2022-09-24T10:18:21.653Z,2108.00
2022-09-24T10:19:22.681Z,2148.00
2022-09-24T10:20:21.650Z,2268.00
2022-09-24T10:21:24.816Z,2112.00
2022-09-24T10:22:23.626Z,2040.00
2022-09-24T10:23:21.620Z,2164.00
2022-09-24T10:24:21.636Z,2776.00
2022-09-24T10:25:21.595Z,2248.00
2022-09-24T10:26:22.598Z,2716.00
2022-09-24T10:27:21.595Z,2496.00
2022-09-24T10:28:21.582Z,2324.00
2022-09-24T10:29:21.608Z,2444.00
2022-09-24T10:30:21.568Z,2584.00
2022-09-24T10:31:21.668Z,2532.00
2022-09-24T10:32:21.560Z,2396.00
2022-09-24T10:33:21.547Z,2196.00
2022-09-24T10:34:21.571Z,2520.00
2022-09-24T10:35:21.534Z,2844.00
2022-09-24T10:36:21.520Z,2976.00
2022-09-24T10:37:21.522Z,3212.00
2022-09-24T10:38:21.517Z,3204.00
2022-09-24T10:39:21.549Z,3232.00
2022-09-24T10:40:21.550Z,3252.00
2022-09-24T10:41:21.509Z,3232.00
2022-09-24T10:42:21.508Z,3220.00
2022-09-24T10:43:21.509Z,3260.00
2022-09-24T10:44:22.070Z,3012.00
2022-09-24T10:45:21.490Z,3028.00
2022-09-24T10:46:22.543Z,3064.00
2022-09-24T10:47:21.435Z,3172.00
2022-09-24T10:48:21.456Z,3340.00
2022-09-24T10:49:21.449Z,3356.00
2022-09-24T10:50:21.437Z,3456.00
2022-09-24T10:51:26.589Z,3472.00
2022-09-24T10:52:23.399Z,3488.00
2022-09-24T10:53:21.388Z,3564.00
2022-09-24T10:54:21.407Z,3128.00
2022-09-24T10:55:21.382Z,2764.00
2022-09-24T10:56:21.367Z,2608.00
2022-09-24T10:57:21.368Z,2780.00
2022-09-24T10:58:21.360Z,2952.00
2022-09-24T10:59:21.373Z,2900.00
2022-09-24T11:00:21.353Z,2524.00
2022-09-24T11:01:21.351Z,2436.00
2022-09-24T11:02:21.323Z,2644.00
2022-09-24T11:03:21.381Z,3508.00
2022-09-24T11:04:21.369Z,3412.00
2022-09-24T11:05:21.312Z,2884.00
2022-09-24T11:06:21.296Z,2548.00
2022-09-24T11:07:21.319Z,2932.00
2022-09-24T11:08:22.193Z,2420.00
2022-09-24T11:09:21.303Z,2380.00
2022-09-24T11:10:21.300Z,2372.00
2022-09-24T11:11:21.263Z,2456.00
2022-09-24T11:12:21.252Z,2720.00
2022-09-24T11:13:21.244Z,3044.00
2022-09-24T11:14:21.303Z,2480.00
2022-09-24T11:15:21.231Z,2472.00
2022-09-24T11:16:21.356Z,2492.00
2022-09-24T11:17:21.220Z,2924.00
2022-09-24T11:18:21.217Z,2436.00
2022-09-24T11:19:21.240Z,2552.00
2022-09-24T11:20:21.200Z,2540.00
2022-09-24T11:21:21.194Z,2508.00
2022-09-24T11:22:21.180Z,2356.00
2022-09-24T11:23:21.205Z,2508.00
2022-09-24T11:24:21.192Z,2408.00
2022-09-24T11:25:21.165Z,2304.00
2022-09-24T11:26:21.150Z,2236.00
2022-09-24T11:27:21.151Z,2204.00
2022-09-24T11:28:21.136Z,2140.00
2022-09-24T11:29:21.152Z,2208.00
2022-09-24T11:30:21.140Z,2128.00
2022-09-24T11:31:21.177Z,2152.00
2022-09-24T11:32:21.110Z,2904.00
2022-09-24T11:33:23.187Z,2636.00
2022-09-24T11:34:22.119Z,2084.00
2022-09-24T11:35:21.080Z,1996.00
2022-09-24T11:36:21.082Z,2036.00
2022-09-24T11:37:21.066Z,2020.00
2022-09-24T11:38:21.066Z,2196.00
2022-09-24T11:39:21.076Z,2156.00
2022-09-24T11:40:21.149Z,2436.00
2022-09-24T11:41:21.043Z,2744.00
2022-09-24T11:42:21.031Z,2652.00
2022-09-24T11:43:21.023Z,2100.00
2022-09-24T11:44:21.050Z,2308.00
2022-09-24T11:45:21.006Z,2236.00
2022-09-24T11:46:21.062Z,1896.00
2022-09-24T11:47:20.996Z,1904.00
2022-09-24T11:48:20.992Z,1908.00
2022-09-24T11:49:21.000Z,2108.00
2022-09-24T11:50:21.030Z,2368.00
2022-09-24T11:51:20.960Z,2724.00
2022-09-24T11:52:20.950Z,2504.00
2022-09-24T11:53:20.943Z,2424.00
2022-09-24T11:54:20.973Z,2712.00
2022-09-24T11:55:20.931Z,2660.00
2022-09-24T11:56:20.921Z,2328.00
2022-09-24T11:57:20.912Z,2196.00
2022-09-24T11:58:20.973Z,2556.00
2022-09-24T11:59:20.927Z,2916.00
2022-09-24T12:00:20.899Z,2712.00
2022-09-24T12:01:20.978Z,2768.00
2022-09-24T12:02:20.936Z,2088.00
2022-09-24T12:03:25.723Z,1908.00
2022-09-24T12:04:22.883Z,2152.00
2022-09-24T12:05:20.874Z,2452.00
2022-09-24T12:06:20.844Z,2600.00
2022-09-24T12:07:20.843Z,2796.00
2022-09-24T12:08:20.827Z,2740.00
2022-09-24T12:09:20.827Z,2776.00
2022-09-24T12:10:20.839Z,2768.00
2022-09-24T12:11:20.808Z,2792.00
2022-09-24T12:12:20.801Z,2808.00
2022-09-24T12:13:20.785Z,2816.00
2022-09-24T12:14:21.848Z,2816.00
2022-09-24T12:15:20.777Z,2816.00
2022-09-24T12:16:20.883Z,2828.00
2022-09-24T12:17:20.763Z,2688.00
2022-09-24T12:18:20.751Z,2856.00
2022-09-24T12:19:20.779Z,2644.00
2022-09-24T12:20:20.742Z,2608.00
2022-09-24T12:21:20.729Z,2616.00
2022-09-24T12:22:20.721Z,1880.00
2022-09-24T12:23:20.715Z,2076.00
2022-09-24T12:24:20.702Z,2332.00
2022-09-24T12:25:20.727Z,2248.00
2022-09-24T12:26:20.692Z,2576.00
2022-09-24T12:27:20.679Z,2368.00
2022-09-24T12:28:20.680Z,2476.00
2022-09-24T12:29:20.663Z,2488.00
2022-09-24T12:30:20.689Z,2296.00
2022-09-24T12:31:20.688Z,2036.00
2022-09-24T12:32:20.642Z,2512.00
2022-09-24T12:33:20.631Z,2480.00
2022-09-24T12:34:20.630Z,2696.00
2022-09-24T12:35:20.652Z,2700.00
2022-09-24T12:36:20.615Z,2280.00
2022-09-24T12:37:20.609Z,2520.00